Time;durP1;ratioP1;P1;durP2;ratioP2;P2;SDS_P1;SDS_P2;PMS_P1;PMS_P2;Temp;Humidity;BMP_temperature;BMP_pressure;BME280_temperature;BME280_humidity;BME280_pressure;Samples;Min_cycle;Max_cycle;Signal;HPM_P1;HPM_P2
2021/05/18 00:01:40;;;;;;;2.95;0.73;;;9.50;99.90;;;;;;5016883;28;20129;-80
2021/05/18 00:04:06;;;;;;;1.65;0.40;;;9.60;99.90;;;;;;5016515;28;20029;-81
2021/05/18 00:06:32;;;;;;;1.48;0.60;;;9.60;99.90;;;;;;5015235;28;20022;-80
2021/05/18 00:11:47;;;;;;;2.80;0.70;;;9.70;99.90;;;;;;5017047;28;20084;-80
2021/05/18 00:14:19;;;;;;;1.02;0.50;;;9.70;99.90;;;;;;5016660;28;20101;-81
2021/05/18 00:16:45;;;;;;;2.83;0.50;;;9.80;99.90;;;;;;5015069;28;20113;-81
2021/05/18 00:19:11;;;;;;;1.65;0.50;;;9.50;99.90;;;;;;5016262;28;20030;-81
2021/05/18 00:21:37;;;;;;;0.60;0.30;;;9.60;99.90;;;;;;5014967;28;20040;-81
2021/05/18 00:24:03;;;;;;;2.55;0.52;;;9.60;99.90;;;;;;5013531;28;20363;-81
2021/05/18 00:26:29;;;;;;;1.05;0.50;;;9.70;99.90;;;;;;5014843;28;20026;-81
2021/05/18 00:28:54;;;;;;;0.35;0.25;;;9.70;99.90;;;;;;5016032;28;20026;-81
2021/05/18 00:31:20;;;;;;;1.17;0.40;;;9.80;99.90;;;;;;5016325;28;20026;-82
2021/05/18 00:33:46;;;;;;;0.40;0.40;;;9.90;99.90;;;;;;5016581;28;20030;-82
2021/05/18 00:36:13;;;;;;;0.85;0.50;;;10.00;99.90;;;;;;5015942;28;20026;-82
2021/05/18 00:38:40;;;;;;;1.77;0.40;;;10.10;99.90;;;;;;5015867;28;20037;-81
2021/05/18 00:41:07;;;;;;;0.70;0.40;;;10.20;99.90;;;;;;5014640;28;20120;-82
2021/05/18 00:43:34;;;;;;;0.90;0.45;;;10.20;99.90;;;;;;5014520;28;20037;-82
2021/05/18 00:45:59;;;;;;;1.25;0.40;;;10.20;99.90;;;;;;5014413;28;20022;-82
2021/05/18 00:48:25;;;;;;;0.75;0.40;;;10.30;99.90;;;;;;5014352;28;20080;-82
2021/05/18 00:50:57;;;;;;;0.73;0.30;;;10.30;99.90;;;;;;5048368;28;20040;-82
2021/05/18 00:53:24;;;;;;;0.93;0.38;;;10.40;99.90;;;;;;5055327;28;20358;-81
2021/05/18 00:55:55;;;;;;;4.65;0.50;;;10.40;99.90;;;;;;5055292;28;20021;-82
2021/05/18 00:58:27;;;;;;;1.23;0.32;;;10.40;99.90;;;;;;5037407;28;20473;-82
2021/05/18 01:01:14;;;;;;;0.98;0.30;;;10.30;99.90;;;;;;5055499;28;20020;-82
2021/05/18 01:03:40;;;;;;;2.97;0.40;;;10.40;99.90;;;;;;5037312;28;20028;-82
2021/05/18 01:09:07;;;;;;;0.38;0.30;;;10.50;99.90;;;;;;5055540;28;20440;-82
2021/05/18 01:11:33;;;;;;;2.17;0.30;;;10.60;99.90;;;;;;5037134;28;20021;-82
2021/05/18 01:14:03;;;;;;;0.82;0.40;;;10.60;99.90;;;;;;5054912;28;20028;-81
2021/05/18 01:16:33;;;;;;;1.38;0.47;;;10.60;99.90;;;;;;5037277;28;20055;-80
2021/05/18 01:18:59;;;;;;;0.93;0.40;;;10.60;99.90;;;;;;5036944;28;20392;-79
2021/05/18 01:21:25;;;;;;;3.17;0.50;;;10.60;99.90;;;;;;5036972;28;20548;-79
2021/05/18 01:23:51;;;;;;;1.08;0.43;;;10.50;99.90;;;;;;5036851;28;20439;-79
2021/05/18 01:26:18;;;;;;;2.63;0.40;;;10.50;99.90;;;;;;5036801;28;20033;-79
2021/05/18 01:28:44;;;;;;;0.60;0.40;;;10.60;99.90;;;;;;5037276;28;20053;-79
2021/05/18 01:31:12;;;;;;;3.20;0.52;;;10.60;99.90;;;;;;5036713;28;20029;-79
2021/05/18 01:33:38;;;;;;;2.17;0.70;;;10.60;99.90;;;;;;5054059;28;20105;-78
2021/05/18 01:36:10;;;;;;;2.05;0.50;;;10.40;99.90;;;;;;5036528;28;20107;-78
2021/05/18 01:44:14;;;;;;;0.40;0.30;;;10.20;99.90;;;;;;5054974;28;20036;-78
2021/05/18 01:46:42;;;;;;;1.63;0.50;;;10.10;99.90;;;;;;5036361;28;20480;-78
2021/05/18 01:49:10;;;;;;;1.67;0.30;;;10.20;99.90;;;;;;5036022;28;20040;-78
2021/05/18 01:51:40;;;;;;;0.77;0.50;;;10.10;99.90;;;;;;5036341;28;20433;-78
2021/05/18 01:54:12;;;;;;;0.80;0.30;;;10.00;99.90;;;;;;5036316;28;20393;-78
2021/05/18 01:59:40;;;;;;;3.42;0.70;;;10.10;99.90;;;;;;4993124;28;20022;-78
2021/05/18 02:02:06;;;;;;;0.82;0.40;;;10.00;99.90;;;;;;5027869;28;20052;-78
2021/05/18 02:04:57;;;;;;;3.10;0.50;;;10.10;99.90;;;;;;5054045;28;20559;-78
2021/05/18 02:07:27;;;;;;;1.95;0.45;;;10.00;99.90;;;;;;5036348;28;20029;-78
2021/05/18 02:09:53;;;;;;;0.70;0.40;;;10.20;99.90;;;;;;5054077;28;20036;-78
2021/05/18 02:12:19;;;;;;;0.82;0.38;;;10.20;99.90;;;;;;5053896;28;20025;-79
2021/05/18 02:14:48;;;;;;;0.95;0.50;;;10.20;99.90;;;;;;5035950;28;20017;-79
2021/05/18 02:17:24;;;;;;;1.00;0.50;;;10.30;99.90;;;;;;5035888;28;20380;-78
2021/05/18 02:20:09;;;;;;;0.60;0.20;;;10.30;99.90;;;;;;5035906;28;20078;-78
2021/05/18 02:25:16;;;;;;;1.60;0.40;;;10.40;99.90;;;;;;5053702;28;20083;-79
2021/05/18 02:27:42;;;;;;;2.58;0.40;;;10.40;99.90;;;;;;5053601;28;20029;-79
2021/05/18 02:30:09;;;;;;;2.15;0.45;;;10.40;99.90;;;;;;5035618;28;20028;-79
2021/05/18 02:32:36;;;;;;;1.35;0.35;;;10.30;99.90;;;;;;5053545;28;20025;-79
2021/05/18 02:35:04;;;;;;;1.45;0.40;;;10.40;99.90;;;;;;5035628;28;20021;-79
2021/05/18 02:37:30;;;;;;;0.82;0.30;;;10.40;99.90;;;;;;5053439;28;20021;-78
2021/05/18 02:39:56;;;;;;;1.25;0.50;;;10.40;99.90;;;;;;5035590;28;20024;-79
2021/05/18 02:42:22;;;;;;;0.50;0.38;;;10.40;99.90;;;;;;5035474;28;20120;-79
2021/05/18 02:50:01;;;;;;;1.05;0.40;;;10.50;99.90;;;;;;5053078;28;20048;-79
2021/05/18 02:52:27;;;;;;;0.52;0.40;;;10.40;99.90;;;;;;5053291;28;20480;-79
2021/05/18 02:54:55;;;;;;;3.17;0.50;;;10.40;99.90;;;;;;5035441;28;20048;-79
2021/05/18 02:57:37;;;;;;;0.47;0.40;;;10.30;99.90;;;;;;5053477;28;20538;-79
2021/05/18 03:00:13;;;;;;;0.80;0.30;;;10.30;99.90;;;;;;5035337;28;20027;-79
2021/05/18 03:02:40;;;;;;;0.50;0.22;;;10.30;99.90;;;;;;5035230;28;20053;-79
2021/05/18 03:05:06;;;;;;;5.25;0.30;;;10.30;99.90;;;;;;5035260;28;20036;-79
2021/05/18 03:07:32;;;;;;;0.85;0.30;;;10.30;99.90;;;;;;5035150;28;20060;-79
2021/05/18 03:09:58;;;;;;;0.85;0.20;;;10.20;99.90;;;;;;5035228;28;20484;-79
2021/05/18 03:12:23;;;;;;;0.28;0.15;;;10.20;99.90;;;;;;5053032;28;20385;-79
2021/05/18 03:14:49;;;;;;;0.70;0.30;;;10.00;99.90;;;;;;5035146;28;20431;-79
2021/05/18 03:17:16;;;;;;;0.85;0.32;;;10.00;99.90;;;;;;5035084;28;20021;-79
2021/05/18 03:19:42;;;;;;;1.23;0.40;;;9.80;99.90;;;;;;5035073;28;20028;-79
2021/05/18 03:22:08;;;;;;;0.52;0.30;;;9.80;99.90;;;;;;5035070;28;20033;-79
2021/05/18 03:24:34;;;;;;;2.00;0.35;;;9.80;99.90;;;;;;5034878;28;20021;-79
2021/05/18 03:26:59;;;;;;;3.92;0.30;;;9.80;99.90;;;;;;5035078;28;20384;-79
2021/05/18 03:29:30;;;;;;;1.00;0.25;;;9.70;99.90;;;;;;5053036;28;20064;-79
2021/05/18 03:34:41;;;;;;;0.82;0.40;;;9.60;99.90;;;;;;5053441;28;20040;-80
2021/05/18 03:39:48;;;;;;;0.95;0.40;;;9.70;99.90;;;;;;5052852;28;20072;-79
2021/05/18 03:44:50;;;;;;;0.35;0.30;;;9.50;99.90;;;;;;5052779;28;20033;-79
2021/05/18 03:53:04;;;;;;;0.45;0.30;;;9.20;99.90;;;;;;5053075;28;20056;-79
2021/05/18 05:01:12;;;;;;;1.17;0.60;;;10.20;99.90;;;;;;4993858;28;20062;-79
2021/05/18 05:14:24;;;;;;;1.83;0.52;;;10.40;99.90;;;;;;5055319;28;20565;-79
2021/05/18 05:16:51;;;;;;;3.42;0.70;;;10.30;99.90;;;;;;5036956;28;20017;-80
2021/05/18 05:19:17;;;;;;;1.25;0.70;;;10.30;99.90;;;;;;5054819;28;20039;-80
2021/05/18 05:21:43;;;;;;;2.47;0.60;;;10.20;99.90;;;;;;5054812;28;20392;-79
2021/05/18 05:24:10;;;;;;;1.33;0.57;;;10.10;99.90;;;;;;5054743;28;20028;-79
2021/05/18 05:26:36;;;;;;;1.50;0.57;;;10.10;99.90;;;;;;5054731;28;20503;-80
2021/05/18 05:29:04;;;;;;;0.82;0.50;;;10.00;99.90;;;;;;5054629;28;20029;-79
2021/05/18 05:31:30;;;;;;;1.30;0.70;;;9.90;99.90;;;;;;5036767;28;20025;-79
2021/05/18 05:33:56;;;;;;;1.73;0.60;;;9.80;99.90;;;;;;5037185;28;20377;-79
2021/05/18 05:36:22;;;;;;;1.70;0.70;;;9.90;99.90;;;;;;5036617;28;20022;-80
2021/05/18 05:38:48;;;;;;;3.75;0.68;;;10.10;99.90;;;;;;5036614;28;20029;-79
2021/05/18 05:41:15;;;;;;;1.00;0.63;;;9.90;99.90;;;;;;5036546;28;20130;-79
2021/05/18 05:43:40;;;;;;;3.30;0.70;;;10.00;99.90;;;;;;5036521;28;20029;-79
2021/05/18 05:46:07;;;;;;;1.48;0.68;;;10.10;99.90;;;;;;5054330;28;20024;-79
2021/05/18 05:48:32;;;;;;;2.58;0.90;;;10.10;99.90;;;;;;5036434;28;20112;-79
2021/05/18 05:50:58;;;;;;;3.17;0.90;;;10.10;99.90;;;;;;5017744;28;20128;-78
2021/05/18 05:53:24;;;;;;;2.53;0.95;;;10.10;99.90;;;;;;5013823;28;20033;-79
2021/05/18 05:55:49;;;;;;;4.07;1.40;;;10.10;99.90;;;;;;5014533;28;20092;-79
2021/05/18 05:58:18;;;;;;;4.15;0.90;;;10.20;99.90;;;;;;5013212;28;20366;-79
2021/05/18 06:00:44;;;;;;;2.17;0.90;;;10.20;99.90;;;;;;5014477;28;20469;-79
2021/05/18 06:03:09;;;;;;;2.35;0.70;;;10.20;99.90;;;;;;5014390;28;20078;-79
2021/05/18 06:05:35;;;;;;;2.90;0.70;;;10.30;99.90;;;;;;5013085;28;20025;-79
2021/05/18 06:08:01;;;;;;;1.65;0.75;;;10.40;99.90;;;;;;5013076;28;20026;-79
2021/05/18 06:13:24;;;;;;;1.25;0.50;;;10.60;99.90;;;;;;5014263;28;20018;-79
2021/05/18 06:42:39;;;;;;;0.80;0.70;;;10.80;99.90;;;;;;5014142;28;20036;-79
2021/05/18 06:47:50;;;;;;;2.38;0.90;;;11.10;99.90;;;;;;5014232;28;20504;-79
2021/05/18 06:50:38;;;;;;;1.45;0.82;;;11.20;99.90;;;;;;5032643;28;20052;-79
2021/05/18 06:53:03;;;;;;;1.52;0.70;;;11.30;99.90;;;;;;5052913;28;20068;-79
2021/05/18 06:55:31;;;;;;;1.42;0.90;;;11.30;99.90;;;;;;5053224;28;20017;-79
2021/05/18 06:58:04;;;;;;;1.00;0.70;;;11.50;99.90;;;;;;5035308;28;20057;-79
2021/05/18 07:00:33;;;;;;;1.63;0.70;;;11.70;99.90;;;;;;5035363;28;20067;-79
2021/05/18 07:02:59;;;;;;;2.67;1.00;;;11.70;99.90;;;;;;5053098;28;20117;-79
2021/05/18 07:08:04;;;;;;;2.33;0.60;;;11.70;99.90;;;;;;5053357;28;20029;-79
2021/05/18 07:10:30;;;;;;;1.50;0.80;;;11.50;99.90;;;;;;5035209;28;20075;-79
2021/05/18 07:12:56;;;;;;;1.40;0.60;;;11.30;99.90;;;;;;5053053;28;20025;-79
2021/05/18 07:15:22;;;;;;;1.25;0.80;;;11.30;99.90;;;;;;5053324;28;20020;-79
2021/05/18 07:17:47;;;;;;;1.30;0.68;;;11.50;99.90;;;;;;5035151;28;20047;-79
2021/05/18 07:20:13;;;;;;;1.52;0.70;;;11.40;99.90;;;;;;5053022;28;20055;-79
2021/05/18 07:22:39;;;;;;;3.00;0.60;;;11.30;99.90;;;;;;5052957;28;20036;-79
2021/05/18 07:25:05;;;;;;;2.63;0.60;;;11.30;99.90;;;;;;5052908;28;20032;-79
2021/05/18 07:27:31;;;;;;;2.50;0.68;;;11.30;99.90;;;;;;5034992;28;20025;-78
2021/05/18 07:29:57;;;;;;;1.80;0.75;;;11.30;99.90;;;;;;5034897;28;20033;-80
2021/05/18 07:32:22;;;;;;;2.17;1.05;;;11.30;99.90;;;;;;5036212;28;20388;-80
2021/05/18 07:34:50;;;;;;;23.58;15.77;;;11.50;99.90;;;;;;5057089;28;20429;-79
2021/05/18 07:37:16;;;;;;;5.07;2.55;;;11.40;99.90;;;;;;5056817;28;20020;-80
2021/05/18 07:39:42;;;;;;;4.03;2.55;;;11.20;99.90;;;;;;5056713;28;20025;-80
2021/05/18 07:42:09;;;;;;;2.72;1.10;;;11.10;99.90;;;;;;5038794;28;20056;-80
2021/05/18 07:44:35;;;;;;;2.33;0.90;;;11.10;99.90;;;;;;5038707;28;20049;-80
2021/05/18 07:47:02;;;;;;;3.25;1.20;;;11.00;99.90;;;;;;5038700;28;20029;-81
2021/05/18 08:00:38;;;;;;;2.83;1.30;;;11.20;99.90;;;;;;5056465;28;20036;-80
2021/05/18 08:05:36;;;;;;;4.15;1.33;;;11.40;99.90;;;;;;5056686;28;20078;-80
2021/05/18 08:08:02;;;;;;;5.80;1.42;;;11.50;99.90;;;;;;5038303;28;20119;-80
2021/05/18 08:12:54;;;;;;;3.22;1.20;;;11.80;99.90;;;;;;5056423;28;20461;-80
2021/05/18 08:46:58;;;;;;;3.60;1.40;;;12.20;99.90;;;;;;5056478;28;20044;-81
2021/05/18 10:37:51;;;;;;;;;;;14.20;99.90;;;;;;5054272;28;20033;-84
2021/05/18 10:40:31;;;;;;;3.90;0.70;;;14.40;99.90;;;;;;5055660;28;19905;-88
2021/05/18 10:43:21;;;;;;;5.10;0.80;;;14.40;99.90;;;;;;5036064;28;20418;-87
2021/05/18 10:45:53;;;;;;;2.95;0.70;;;14.70;99.90;;;;;;5035938;28;20086;-82
2021/05/18 10:48:26;;;;;;;3.78;0.85;;;14.50;99.90;;;;;;5035473;28;20480;-83
2021/05/18 10:50:52;;;;;;;4.80;0.50;;;14.20;99.90;;;;;;5035302;28;20044;-82
2021/05/18 10:53:29;;;;;;;4.85;0.70;;;13.90;99.90;;;;;;5053795;28;20465;-81
2021/05/18 10:56:03;;;;;;;4.22;0.77;;;13.70;99.90;;;;;;5036330;28;20120;-82
2021/05/18 10:58:31;;;;;;;3.50;0.60;;;13.40;99.90;;;;;;5035344;28;20124;-83
2021/05/18 11:00:57;;;;;;;3.13;0.90;;;13.80;99.90;;;;;;5035646;28;20112;-83
2021/05/18 11:03:22;;;;;;;1.67;0.57;;;14.30;99.90;;;;;;5053247;28;20504;-83
2021/05/18 11:05:51;;;;;;;1.85;0.50;;;15.50;99.90;;;;;;5035351;28;20119;-85
2021/05/18 11:08:16;;;;;;;4.40;0.70;;;15.40;99.90;;;;;;5034683;28;20029;-83
2021/05/18 11:10:44;;;;;;;2.15;0.50;;;15.30;99.90;;;;;;5053147;28;20427;-84
2021/05/18 11:13:11;;;;;;;1.70;0.60;;;15.30;99.90;;;;;;5035222;28;20036;-84
2021/05/18 11:15:37;;;;;;;3.80;0.50;;;14.80;99.90;;;;;;5035322;28;20056;-83
2021/05/18 11:18:05;;;;;;;4.05;0.75;;;14.50;99.90;;;;;;5035223;28;20057;-82
2021/05/18 11:23:20;;;;;;;2.75;0.43;;;14.00;99.90;;;;;;5053292;28;20031;-83
2021/05/18 11:25:55;;;;;;;2.50;0.43;;;13.60;99.90;;;;;;5053436;28;20033;-82
2021/05/18 11:28:22;;;;;;;6.07;0.47;;;13.20;99.90;;;;;;5036421;28;20120;-83
2021/05/18 11:30:54;;;;;;;4.43;0.60;;;13.10;99.90;;;;;;5035819;28;20535;-82
2021/05/18 11:33:27;;;;;;;1.85;0.45;;;12.90;99.90;;;;;;5035499;28;20079;-83
2021/05/18 11:36:24;;;;;;;2.80;0.88;;;12.90;99.90;;;;;;5035341;28;20107;-83
2021/05/18 11:38:58;;;;;;;1.67;0.40;;;13.30;99.90;;;;;;5035063;28;20039;-82
2021/05/18 11:41:38;;;;;;;1.38;0.60;;;13.40;99.90;;;;;;5035960;28;20365;-83
2021/05/18 11:44:06;;;;;;;1.38;0.40;;;13.20;99.90;;;;;;5053804;28;20095;-83
2021/05/18 11:46:35;;;;;;;2.10;0.60;;;13.20;99.90;;;;;;5053242;28;20036;-83
2021/05/18 11:49:10;;;;;;;3.50;0.40;;;16.20;99.90;;;;;;5034715;28;20107;-83
2021/05/18 11:51:48;;;;;;;3.00;0.98;;;15.80;99.90;;;;;;5034901;28;20029;-83
2021/05/18 11:54:15;;;;;;;2.53;0.50;;;16.60;99.90;;;;;;5035028;28;20075;-83
2021/05/18 11:56:42;;;;;;;2.15;0.55;;;17.20;99.90;;;;;;5052863;28;20109;-84
2021/05/18 11:59:20;;;;;;;2.13;0.50;;;17.70;99.90;;;;;;5034951;28;20089;-84
2021/05/18 12:02:00;;;;;;;4.40;0.70;;;17.50;99.90;;;;;;5034888;28;20032;-82
2021/05/18 12:04:28;;;;;;;2.10;0.50;;;18.00;99.90;;;;;;5034805;28;20027;-81
2021/05/18 12:06:57;;;;;;;1.60;0.50;;;18.20;99.90;;;;;;5052544;28;20025;-81
2021/05/18 12:09:25;;;;;;;3.40;0.57;;;18.40;99.90;;;;;;5034835;28;20033;-84
2021/05/18 12:11:58;;;;;;;8.05;3.20;;;18.40;99.90;;;;;;5034957;28;20075;-82
2021/05/18 12:14:25;;;;;;;2.42;0.35;;;17.70;99.90;;;;;;5034754;28;20025;-83
2021/05/18 12:16:51;;;;;;;3.28;0.40;;;17.50;99.90;;;;;;5034679;28;20120;-83
2021/05/18 12:19:19;;;;;;;1.67;0.50;;;17.10;99.90;;;;;;5037753;28;20037;-83
2021/05/18 12:21:49;;;;;;;4.38;0.77;;;16.50;99.90;;;;;;5038182;28;20024;-83
2021/05/18 12:24:16;;;;;;;2.97;0.65;;;16.90;99.90;;;;;;5038261;28;20025;-83
2021/05/18 12:26:59;;;;;;;2.25;0.52;;;18.00;99.90;;;;;;5038120;28;20021;-81
2021/05/18 12:29:46;;;;;;;4.32;0.85;;;18.70;99.90;;;;;;5037943;28;20021;-83
2021/05/18 12:32:28;;;;;;;4.07;0.93;;;17.70;99.90;;;;;;5037979;28;20116;-83
2021/05/18 12:34:57;;;;;;;6.00;1.02;;;16.30;99.90;;;;;;5037822;28;20104;-84
2021/05/18 12:37:37;;;;;;;4.75;0.63;;;16.90;99.90;;;;;;5037889;28;20503;-82
2021/05/18 12:40:26;;;;;;;1.52;0.60;;;17.60;99.90;;;;;;5037810;28;20029;-84
2021/05/18 12:42:53;;;;;;;1.80;0.50;;;16.90;99.90;;;;;;5037840;28;20032;-83
2021/05/18 12:45:21;;;;;;;7.15;0.50;;;16.30;99.90;;;;;;5038488;28;20029;-83
2021/05/18 12:48:05;;;;;;;3.17;0.28;;;15.80;99.90;;;;;;5037624;28;20413;-83
2021/05/18 12:50:50;;;;;;;1.73;0.47;;;15.80;99.90;;;;;;5022734;28;20402;-83
2021/05/18 12:53:32;;;;;;;1.05;0.30;;;15.90;99.90;;;;;;5014514;28;20036;-84
2021/05/18 12:55:59;;;;;;;1.33;0.40;;;16.30;99.90;;;;;;5014437;28;20037;-84
2021/05/18 12:58:29;;;;;;;1.58;0.30;;;17.20;99.90;;;;;;5014433;28;20112;-84
2021/05/18 13:01:24;;;;;;;2.95;0.30;;;17.40;99.90;;;;;;5014364;28;20030;-83
2021/05/18 13:04:07;;;;;;;1.10;0.32;;;17.20;99.90;;;;;;5002991;28;20038;-83
2021/05/18 13:06:33;;;;;;;2.13;0.40;;;17.30;99.90;;;;;;5014305;28;20026;-83
2021/05/18 13:08:58;;;;;;;2.00;0.20;;;17.40;99.90;;;;;;5014066;28;20555;-84
2021/05/18 13:13:59;;;;;;;3.37;0.43;;;16.90;99.90;;;;;;5015561;28;20033;-83
2021/05/18 13:16:35;;;;;;;1.73;0.60;;;16.70;99.90;;;;;;5014060;28;20328;-81
2021/05/18 13:19:06;;;;;;;2.53;0.60;;;16.30;99.90;;;;;;5015323;28;20026;-83
2021/05/18 13:21:35;;;;;;;2.88;0.88;;;16.00;99.90;;;;;;5014057;28;20034;-82
2021/05/18 13:26:34;;;;;;;2.85;0.30;;;15.50;99.90;;;;;;5015256;28;20026;-80
2021/05/18 13:29:01;;;;;;;1.70;0.22;;;14.90;99.90;;;;;;5013918;28;20108;-82
2021/05/18 13:31:29;;;;;;;5.57;0.52;;;14.40;99.90;;;;;;5013672;28;20056;-82
2021/05/18 13:33:55;;;;;;;2.67;0.50;;;14.10;99.90;;;;;;5013933;28;20028;-83
2021/05/18 13:36:21;;;;;;;0.90;0.30;;;13.70;99.90;;;;;;5013816;28;20022;-83
2021/05/18 13:38:47;;;;;;;2.47;0.60;;;13.40;99.90;;;;;;5013738;28;20071;-83
2021/05/18 13:41:13;;;;;;;2.63;0.60;;;13.60;99.90;;;;;;5013581;28;20022;-82
2021/05/18 13:43:39;;;;;;;1.52;0.60;;;13.60;99.90;;;;;;5015386;28;20108;-83
2021/05/18 13:46:05;;;;;;;1.15;0.40;;;13.40;99.90;;;;;;5013921;28;20381;-83
2021/05/18 13:48:30;;;;;;;1.23;0.55;;;13.30;99.90;;;;;;5013748;28;20029;-83
2021/05/18 13:50:58;;;;;;;2.40;0.60;;;13.20;99.90;;;;;;5013470;28;20539;-82
2021/05/18 13:53:24;;;;;;;3.00;0.50;;;13.00;99.90;;;;;;5013680;28;20065;-83
2021/05/18 13:55:50;;;;;;;1.30;0.40;;;13.00;99.90;;;;;;5014993;28;20095;-82
2021/05/18 13:58:17;;;;;;;1.77;0.50;;;13.10;99.90;;;;;;4997714;28;20036;-83
2021/05/18 14:00:43;;;;;;;1.80;0.65;;;13.30;99.90;;;;;;5015384;28;20385;-83
2021/05/18 14:03:09;;;;;;;2.05;0.40;;;13.50;99.90;;;;;;5015571;28;20033;-82
2021/05/18 14:05:34;;;;;;;2.50;0.43;;;13.60;99.90;;;;;;5015193;28;20037;-82
2021/05/18 14:10:45;;;;;;;;;;;13.30;99.90;;;;;;5015778;28;20026;-82
2021/05/18 14:13:11;;;;;;;0.57;0.32;;;13.20;99.90;;;;;;5015532;28;19905;-82
2021/05/18 14:15:36;;;;;;;0.60;0.30;;;13.10;99.90;;;;;;5013790;28;20489;-82
2021/05/18 14:18:03;;;;;;;0.20;0.17;;;12.90;99.90;;;;;;5014486;28;20025;-81
2021/05/18 14:20:28;;;;;;;1.35;0.20;;;13.10;99.90;;;;;;5013636;28;20512;-82
2021/05/18 14:22:54;;;;;;;1.13;0.20;;;13.20;99.90;;;;;;5013112;28;20022;-82
2021/05/18 14:25:20;;;;;;;2.78;0.32;;;13.30;99.90;;;;;;5013007;28;20026;-81
2021/05/18 14:27:45;;;;;;;1.30;0.52;;;13.50;99.90;;;;;;5014300;28;20049;-82
2021/05/18 14:30:13;;;;;;;1.92;0.38;;;13.70;99.90;;;;;;5014020;28;20037;-82
2021/05/18 14:32:43;;;;;;;1.40;0.40;;;13.90;99.90;;;;;;5012860;28;20018;-82
2021/05/18 14:35:12;;;;;;;1.52;0.43;;;13.80;99.90;;;;;;5013986;28;20026;-82
2021/05/18 14:37:40;;;;;;;2.38;0.50;;;13.90;99.90;;;;;;5014024;28;20026;-82
2021/05/18 14:45:21;;;;;;;1.65;0.30;;;14.00;99.90;;;;;;5014054;28;20049;-85
2021/05/18 14:53:42;;;;;;;1.30;0.30;;;15.30;99.90;;;;;;5033909;28;20063;-82
2021/05/18 14:56:08;;;;;;;1.10;0.30;;;15.90;99.90;;;;;;5032194;28;20029;-82
2021/05/18 14:58:33;;;;;;;3.50;0.30;;;16.10;99.90;;;;;;5032080;28;20512;-84
2021/05/18 15:00:59;;;;;;;3.03;0.30;;;16.80;99.90;;;;;;5032064;28;20021;-84
2021/05/18 15:03:30;;;;;;;2.03;0.45;;;16.70;99.90;;;;;;5032074;28;20397;-82
2021/05/18 15:05:57;;;;;;;2.80;0.60;;;17.50;99.90;;;;;;5031809;28;20120;-82
2021/05/18 15:08:23;;;;;;;2.25;0.50;;;17.70;99.90;;;;;;5031839;28;20435;-82
2021/05/18 15:10:52;;;;;;;1.48;0.45;;;17.30;99.90;;;;;;5032993;28;20051;-84
2021/05/18 15:13:17;;;;;;;1.73;0.40;;;16.80;99.90;;;;;;5032228;28;20105;-83
2021/05/18 15:15:43;;;;;;;4.03;0.70;;;16.30;99.90;;;;;;5031945;28;20045;-84
2021/05/18 15:18:10;;;;;;;2.35;0.45;;;15.70;99.90;;;;;;5033136;28;20021;-83
2021/05/18 15:20:36;;;;;;;0.70;0.45;;;16.20;99.90;;;;;;5031946;28;20029;-83
2021/05/18 15:23:02;;;;;;;1.88;0.50;;;16.70;99.90;;;;;;5031890;28;20524;-82
2021/05/18 15:25:28;;;;;;;2.13;0.50;;;16.40;99.90;;;;;;5031755;28;20504;-83
2021/05/18 15:27:54;;;;;;;1.77;0.60;;;16.20;99.90;;;;;;5033051;28;20096;-83
2021/05/18 15:30:20;;;;;;;4.00;0.65;;;16.10;99.90;;;;;;5032976;28;20548;-83
2021/05/18 15:32:45;;;;;;;2.65;0.40;;;15.60;99.90;;;;;;5031791;28;20025;-83
2021/05/18 15:35:11;;;;;;;1.45;0.50;;;15.20;99.90;;;;;;5031806;28;20389;-82
2021/05/18 15:37:41;;;;;;;1.75;0.50;;;15.00;99.90;;;;;;5033003;28;20023;-83
2021/05/18 15:40:07;;;;;;;1.05;0.40;;;14.60;99.90;;;;;;5031720;28;20029;-82
2021/05/18 15:42:33;;;;;;;1.70;0.50;;;14.50;99.90;;;;;;5015350;28;20052;-83
2021/05/18 15:44:59;;;;;;;2.88;0.60;;;14.30;99.90;;;;;;5031645;28;20029;-83
2021/05/18 15:47:25;;;;;;;2.40;0.68;;;14.00;99.90;;;;;;5031591;28;20030;-82
2021/05/18 15:49:50;;;;;;;3.30;0.60;;;14.00;99.90;;;;;;5038492;28;20492;-82
2021/05/18 15:52:16;;;;;;;3.00;0.65;;;13.90;99.90;;;;;;5034865;28;20021;-81
2021/05/18 15:54:42;;;;;;;2.78;0.40;;;14.00;99.90;;;;;;5038063;28;20499;-83
2021/05/18 15:57:07;;;;;;;2.40;0.63;;;13.90;99.90;;;;;;5038703;28;20063;-83
2021/05/18 15:59:33;;;;;;;0.80;0.40;;;13.80;99.90;;;;;;5038625;28;20370;-82
2021/05/18 16:01:59;;;;;;;2.90;0.52;;;13.70;99.90;;;;;;5038507;28;20029;-81
2021/05/18 16:04:25;;;;;;;4.22;0.60;;;13.50;99.90;;;;;;5038475;28;20490;-82
2021/05/18 16:06:52;;;;;;;2.20;0.77;;;13.50;99.90;;;;;;5038537;28;20107;-81
2021/05/18 16:09:18;;;;;;;3.08;0.73;;;13.50;99.90;;;;;;5038276;28;20053;-81
2021/05/18 16:11:43;;;;;;;3.83;0.60;;;13.50;99.90;;;;;;5056256;28;20420;-82
2021/05/18 16:14:10;;;;;;;2.20;0.75;;;13.70;99.90;;;;;;5038405;28;20021;-82
2021/05/18 16:16:37;;;;;;;4.70;0.77;;;13.50;99.90;;;;;;5056475;28;20025;-81
2021/05/18 16:19:03;;;;;;;5.32;1.38;;;13.60;99.90;;;;;;5039044;28;20025;-81
2021/05/18 16:21:29;;;;;;;3.33;0.95;;;13.50;99.90;;;;;;5038983;28;20025;-82
2021/05/18 16:23:57;;;;;;;1.83;0.57;;;13.50;99.90;;;;;;5038199;28;20029;-82
2021/05/18 16:26:32;;;;;;;2.85;0.73;;;13.40;99.90;;;;;;5038057;28;20033;-82
2021/05/18 16:28:59;;;;;;;2.53;0.40;;;13.40;99.90;;;;;;5055821;28;20025;-82
2021/05/18 16:31:26;;;;;;;5.30;0.57;;;13.50;99.90;;;;;;5037936;28;20021;-83
2021/05/18 16:33:51;;;;;;;3.10;0.70;;;13.60;99.90;;;;;;5037881;28;20492;-82
2021/05/18 16:36:17;;;;;;;3.80;0.40;;;13.70;99.90;;;;;;5037915;28;20017;-82
2021/05/18 16:38:47;;;;;;;2.50;0.47;;;13.50;99.90;;;;;;5037811;28;20028;-82
2021/05/18 16:41:13;;;;;;;2.85;0.55;;;13.30;99.90;;;;;;5037835;28;20493;-83
2021/05/18 16:43:39;;;;;;;5.68;0.40;;;13.40;99.90;;;;;;5037730;28;20028;-82
2021/05/18 16:46:07;;;;;;;5.10;0.40;;;13.20;99.90;;;;;;5055560;28;20025;-82
2021/05/18 16:48:33;;;;;;;0.55;0.30;;;12.90;99.90;;;;;;5037734;28;20021;-81
2021/05/18 16:51:01;;;;;;;0.63;0.40;;;12.90;99.90;;;;;;5037432;28;20045;-82
2021/05/18 16:53:27;;;;;;;2.97;0.50;;;13.10;99.90;;;;;;5037617;28;20419;-81
2021/05/18 16:55:54;;;;;;;1.08;0.40;;;13.20;99.90;;;;;;5037502;28;20021;-83
2021/05/18 16:58:20;;;;;;;1.10;0.70;;;13.00;99.90;;;;;;5037426;28;20024;-83
2021/05/18 17:00:46;;;;;;;0.98;0.40;;;12.90;99.90;;;;;;5037370;28;20033;-83
2021/05/18 17:03:14;;;;;;;0.82;0.40;;;13.00;99.90;;;;;;5037668;28;20047;-82
2021/05/18 17:05:40;;;;;;;2.55;0.47;;;13.10;99.90;;;;;;5054167;28;20021;-82
2021/05/18 17:08:06;;;;;;;3.83;0.40;;;13.20;99.90;;;;;;5037326;28;20050;-82
2021/05/18 17:10:33;;;;;;;0.90;0.35;;;13.20;99.90;;;;;;5037465;28;20036;-82
2021/05/18 17:13:00;;;;;;;1.05;0.32;;;13.20;99.90;;;;;;5037179;28;20158;-82
2021/05/18 17:15:27;;;;;;;0.90;0.30;;;13.20;99.90;;;;;;5055081;28;20067;-83
2021/05/18 17:17:53;;;;;;;1.30;0.60;;;13.30;99.90;;;;;;5037121;28;20102;-83
2021/05/18 17:20:20;;;;;;;1.02;0.40;;;13.40;99.90;;;;;;5037017;28;20072;-83
2021/05/18 17:22:46;;;;;;;1.48;0.60;;;13.30;99.90;;;;;;5037045;28;20112;-83
2021/05/18 17:25:13;;;;;;;2.55;0.30;;;13.30;99.90;;;;;;5037177;28;20110;-83
2021/05/18 17:27:39;;;;;;;0.68;0.40;;;13.40;99.90;;;;;;5036958;28;20036;-83
2021/05/18 17:30:08;;;;;;;1.25;0.50;;;13.30;99.90;;;;;;5036847;28;20048;-83
2021/05/18 17:32:35;;;;;;;2.88;1.27;;;12.90;99.90;;;;;;5036864;28;20480;-82
2021/05/18 17:35:01;;;;;;;1.40;0.50;;;13.00;99.90;;;;;;5036776;28;20017;-83
2021/05/18 17:37:27;;;;;;;3.00;0.40;;;12.80;99.90;;;;;;5054690;28;20083;-83
2021/05/18 17:39:53;;;;;;;1.48;0.40;;;12.80;99.90;;;;;;5036731;28;20143;-83
2021/05/18 17:42:19;;;;;;;0.45;0.22;;;12.70;99.90;;;;;;5036677;28;20059;-82
2021/05/18 17:44:46;;;;;;;1.05;0.43;;;12.70;99.90;;;;;;5036841;28;20400;-81
2021/05/18 17:47:13;;;;;;;1.40;0.50;;;12.50;99.90;;;;;;5036258;28;20480;-81
2021/05/18 17:49:39;;;;;;;1.00;0.47;;;12.40;99.90;;;;;;5054268;28;20413;-81
2021/05/18 17:52:08;;;;;;;1.00;0.40;;;12.40;99.90;;;;;;5054389;28;20527;-81
2021/05/18 17:54:36;;;;;;;3.40;2.63;;;12.60;99.90;;;;;;5054293;28;20021;-82
2021/05/18 17:57:02;;;;;;;2.53;0.88;;;12.60;99.90;;;;;;5036391;28;20025;-82
2021/05/18 17:59:28;;;;;;;0.75;0.43;;;12.50;99.90;;;;;;5036401;28;20032;-81
2021/05/18 18:01:54;;;;;;;2.35;0.60;;;12.20;99.90;;;;;;5054153;28;20021;-82
2021/05/18 18:04:20;;;;;;;1.67;0.75;;;12.30;99.90;;;;;;5054161;28;20025;-81
2021/05/18 18:06:45;;;;;;;2.13;0.80;;;12.30;99.90;;;;;;5054342;28;20040;-79
2021/05/18 18:09:11;;;;;;;2.92;1.00;;;12.40;99.90;;;;;;5054209;28;20028;-77
2021/05/18 18:11:39;;;;;;;12.88;1.35;;;12.30;99.90;;;;;;5036313;28;20027;-78
2021/05/18 18:14:06;;;;;;;3.80;1.20;;;11.80;99.90;;;;;;5054778;28;20032;-77
2021/05/18 18:16:32;;;;;;;2.63;0.85;;;11.60;99.90;;;;;;5036257;28;20028;-77
2021/05/18 18:18:58;;;;;;;2.28;0.88;;;11.40;99.90;;;;;;5036316;28;20028;-78